sensor_id;sensor_type;location;lat;lon;timestamp;P1;durP1;ratioP1;P2;durP2;ratioP2
28577;SDS011;15769;52.248;15.818;2023-09-12T00:05:22;25.10;;;18.52;;
28577;SDS011;15769;52.248;15.818;2023-09-12T00:10:28;28.05;;;17.58;;
28577;SDS011;15769;52.248;15.818;2023-09-12T00:21:07;26.02;;;18.38;;
28577;SDS011;15769;52.248;15.818;2023-09-12T00:26:09;25.90;;;19.05;;
28577;SDS011;15769;52.248;15.818;2023-09-12T00:31:12;28.40;;;19.92;;
28577;SDS011;15769;52.248;15.818;2023-09-12T00:36:15;28.17;;;18.52;;
28577;SDS011;15769;52.248;15.818;2023-09-12T00:51:57;28.20;;;19.42;;
28577;SDS011;15769;52.248;15.818;2023-09-12T01:07:28;26.77;;;19.10;;
28577;SDS011;15769;52.248;15.818;2023-09-12T01:12:31;29.30;;;19.35;;
28577;SDS011;15769;52.248;15.818;2023-09-12T01:17:34;23.80;;;18.73;;
28577;SDS011;15769;52.248;15.818;2023-09-12T01:27:56;26.65;;;18.65;;
28577;SDS011;15769;52.248;15.818;2023-09-12T01:33:03;26.88;;;18.02;;
28577;SDS011;15769;52.248;15.818;2023-09-12T01:38:06;25.85;;;19.02;;
28577;SDS011;15769;52.248;15.818;2023-09-12T01:58:54;22.67;;;18.20;;
28577;SDS011;15769;52.248;15.818;2023-09-12T02:04:02;24.48;;;17.55;;
28577;SDS011;15769;52.248;15.818;2023-09-12T02:09:06;28.13;;;18.17;;
28577;SDS011;15769;52.248;15.818;2023-09-12T02:14:09;29.48;;;18.92;;
28577;SDS011;15769;52.248;15.818;2023-09-12T02:19:12;25.88;;;18.20;;
28577;SDS011;15769;52.248;15.818;2023-09-12T02:24:15;23.35;;;18.40;;
28577;SDS011;15769;52.248;15.818;2023-09-12T02:29:41;23.52;;;18.23;;
28577;SDS011;15769;52.248;15.818;2023-09-12T02:34:45;22.42;;;17.55;;
28577;SDS011;15769;52.248;15.818;2023-09-12T02:39:48;22.65;;;16.90;;
28577;SDS011;15769;52.248;15.818;2023-09-12T02:44:51;24.77;;;19.25;;
28577;SDS011;15769;52.248;15.818;2023-09-12T02:49:55;27.63;;;19.05;;
28577;SDS011;15769;52.248;15.818;2023-09-12T03:00:12;25.73;;;18.70;;
28577;SDS011;15769;52.248;15.818;2023-09-12T03:05:16;29.27;;;18.27;;
28577;SDS011;15769;52.248;15.818;2023-09-12T03:10:19;24.65;;;19.52;;
28577;SDS011;15769;52.248;15.818;2023-09-12T03:26:04;27.83;;;19.90;;
28577;SDS011;15769;52.248;15.818;2023-09-12T03:36:33;28.98;;;20.75;;
28577;SDS011;15769;52.248;15.818;2023-09-12T03:41:40;31.77;;;20.60;;
28577;SDS011;15769;52.248;15.818;2023-09-12T03:46:49;27.95;;;20.85;;
28577;SDS011;15769;52.248;15.818;2023-09-12T03:51:56;28.33;;;20.30;;
28577;SDS011;15769;52.248;15.818;2023-09-12T04:07:47;28.00;;;21.63;;
28577;SDS011;15769;52.248;15.818;2023-09-12T04:18:00;25.48;;;20.17;;
28577;SDS011;15769;52.248;15.818;2023-09-12T04:28:27;24.25;;;18.75;;
28577;SDS011;15769;52.248;15.818;2023-09-12T04:33:30;23.27;;;17.45;;
28577;SDS011;15769;52.248;15.818;2023-09-12T04:43:40;21.17;;;16.90;;
28577;SDS011;15769;52.248;15.818;2023-09-12T04:48:47;19.33;;;15.80;;
28577;SDS011;15769;52.248;15.818;2023-09-12T04:53:51;22.20;;;18.67;;
28577;SDS011;15769;52.248;15.818;2023-09-12T05:04:09;26.90;;;18.98;;
28577;SDS011;15769;52.248;15.818;2023-09-12T05:14:41;26.33;;;20.80;;
28577;SDS011;15769;52.248;15.818;2023-09-12T05:19:44;24.50;;;19.42;;
28577;SDS011;15769;52.248;15.818;2023-09-12T05:24:47;30.35;;;22.27;;
28577;SDS011;15769;52.248;15.818;2023-09-12T05:29:51;29.58;;;23.30;;
28577;SDS011;15769;52.248;15.818;2023-09-12T05:35:19;32.47;;;25.40;;
28577;SDS011;15769;52.248;15.818;2023-09-12T05:40:31;31.57;;;25.70;;
28577;SDS011;15769;52.248;15.818;2023-09-12T05:50:51;34.17;;;23.63;;
28577;SDS011;15769;52.248;15.818;2023-09-12T06:01:14;30.50;;;24.58;;
28577;SDS011;15769;52.248;15.818;2023-09-12T06:06:19;33.27;;;24.70;;
28577;SDS011;15769;52.248;15.818;2023-09-12T06:11:22;28.55;;;23.45;;
28577;SDS011;15769;52.248;15.818;2023-09-12T06:21:37;31.83;;;23.80;;
28577;SDS011;15769;52.248;15.818;2023-09-12T06:26:44;30.55;;;24.40;;
28577;SDS011;15769;52.248;15.818;2023-09-12T06:31:47;33.55;;;23.95;;
28577;SDS011;15769;52.248;15.818;2023-09-12T06:36:51;27.27;;;23.08;;
28577;SDS011;15769;52.248;15.818;2023-09-12T06:47:05;32.13;;;24.80;;
28577;SDS011;15769;52.248;15.818;2023-09-12T06:57:36;29.10;;;23.95;;
28577;SDS011;15769;52.248;15.818;2023-09-12T07:02:39;29.02;;;23.20;;
28577;SDS011;15769;52.248;15.818;2023-09-12T07:23:36;27.20;;;22.70;;
28577;SDS011;15769;52.248;15.818;2023-09-12T07:28:39;25.08;;;20.10;;
28577;SDS011;15769;52.248;15.818;2023-09-12T07:33:45;26.30;;;20.73;;
28577;SDS011;15769;52.248;15.818;2023-09-12T07:38:49;24.23;;;19.20;;
28577;SDS011;15769;52.248;15.818;2023-09-12T07:43:52;22.30;;;17.50;;
28577;SDS011;15769;52.248;15.818;2023-09-12T07:48:58;20.88;;;17.52;;
28577;SDS011;15769;52.248;15.818;2023-09-12T07:54:01;20.92;;;18.45;;
28577;SDS011;15769;52.248;15.818;2023-09-12T08:04:15;20.30;;;17.50;;
28577;SDS011;15769;52.248;15.818;2023-09-12T08:14:46;19.95;;;17.08;;
28577;SDS011;15769;52.248;15.818;2023-09-12T08:25:13;21.00;;;16.63;;
28577;SDS011;15769;52.248;15.818;2023-09-12T08:30:17;19.88;;;15.80;;
28577;SDS011;15769;52.248;15.818;2023-09-12T08:40:33;16.52;;;14.30;;
28577;SDS011;15769;52.248;15.818;2023-09-12T08:50:58;17.10;;;12.70;;
28577;SDS011;15769;52.248;15.818;2023-09-12T08:56:01;13.15;;;11.32;;
28577;SDS011;15769;52.248;15.818;2023-09-12T09:01:06;14.90;;;11.82;;
28577;SDS011;15769;52.248;15.818;2023-09-12T09:06:11;12.55;;;11.25;;
28577;SDS011;15769;52.248;15.818;2023-09-12T09:11:14;13.80;;;10.55;;
28577;SDS011;15769;52.248;15.818;2023-09-12T09:16:19;12.02;;;10.65;;
28577;SDS011;15769;52.248;15.818;2023-09-12T09:21:24;11.60;;;10.40;;
28577;SDS011;15769;52.248;15.818;2023-09-12T09:31:50;11.80;;;9.52;;
28577;SDS011;15769;52.248;15.818;2023-09-12T09:36:55;12.23;;;9.55;;
28577;SDS011;15769;52.248;15.818;2023-09-12T09:47:42;10.20;;;9.15;;
28577;SDS011;15769;52.248;15.818;2023-09-12T09:52:46;9.65;;;8.75;;
28577;SDS011;15769;52.248;15.818;2023-09-12T09:57:49;9.90;;;8.90;;
28577;SDS011;15769;52.248;15.818;2023-09-12T10:02:57;10.20;;;9.18;;
28577;SDS011;15769;52.248;15.818;2023-09-12T10:13:46;9.30;;;8.40;;
28577;SDS011;15769;52.248;15.818;2023-09-12T10:29:58;10.93;;;9.38;;
28577;SDS011;15769;52.248;15.818;2023-09-12T10:40:39;10.10;;;8.93;;
28577;SDS011;15769;52.248;15.818;2023-09-12T10:51:02;11.43;;;9.55;;
28577;SDS011;15769;52.248;15.818;2023-09-12T11:13:38;10.70;;;9.73;;
28577;SDS011;15769;52.248;15.818;2023-09-12T11:24:05;9.07;;;8.18;;
28577;SDS011;15769;52.248;15.818;2023-09-12T11:50:33;8.43;;;7.63;;
28577;SDS011;15769;52.248;15.818;2023-09-12T12:01:04;8.90;;;8.10;;
28577;SDS011;15769;52.248;15.818;2023-09-12T12:06:08;9.50;;;8.45;;
28577;SDS011;15769;52.248;15.818;2023-09-12T12:16:22;9.57;;;8.00;;
28577;SDS011;15769;52.248;15.818;2023-09-12T12:21:28;9.82;;;8.88;;
28577;SDS011;15769;52.248;15.818;2023-09-12T12:27:02;9.48;;;8.40;;
28577;SDS011;15769;52.248;15.818;2023-09-12T12:37:36;8.68;;;7.88;;
28577;SDS011;15769;52.248;15.818;2023-09-12T13:17:18;11.10;;;9.40;;
28577;SDS011;15769;52.248;15.818;2023-09-12T13:49:29;9.65;;;8.75;;
28577;SDS011;15769;52.248;15.818;2023-09-12T14:00:11;10.88;;;9.05;;
28577;SDS011;15769;52.248;15.818;2023-09-12T14:05:15;10.75;;;9.07;;
28577;SDS011;15769;52.248;15.818;2023-09-12T14:10:20;9.27;;;8.32;;
28577;SDS011;15769;52.248;15.818;2023-09-12T14:15:35;10.38;;;9.20;;
28577;SDS011;15769;52.248;15.818;2023-09-12T14:20:39;11.35;;;9.63;;
28577;SDS011;15769;52.248;15.818;2023-09-12T14:36:30;8.63;;;7.82;;
28577;SDS011;15769;52.248;15.818;2023-09-12T14:41:34;8.95;;;8.05;;
28577;SDS011;15769;52.248;15.818;2023-09-12T14:46:41;9.38;;;8.38;;
28577;SDS011;15769;52.248;15.818;2023-09-12T14:51:44;8.20;;;7.50;;
28577;SDS011;15769;52.248;15.818;2023-09-12T15:01:57;11.93;;;9.63;;
28577;SDS011;15769;52.248;15.818;2023-09-12T15:23:24;10.18;;;8.65;;
28577;SDS011;15769;52.248;15.818;2023-09-12T15:28:31;9.57;;;8.68;;
28577;SDS011;15769;52.248;15.818;2023-09-12T15:33:34;9.80;;;8.90;;
28577;SDS011;15769;52.248;15.818;2023-09-12T15:49:17;14.13;;;9.30;;
28577;SDS011;15769;52.248;15.818;2023-09-12T15:54:20;14.27;;;9.02;;
28577;SDS011;15769;52.248;15.818;2023-09-12T15:59:35;22.27;;;10.00;;
28577;SDS011;15769;52.248;15.818;2023-09-12T16:04:38;25.58;;;10.60;;
28577;SDS011;15769;52.248;15.818;2023-09-12T16:09:41;19.00;;;11.18;;
28577;SDS011;15769;52.248;15.818;2023-09-12T16:14:45;17.40;;;10.50;;
28577;SDS011;15769;52.248;15.818;2023-09-12T16:19:51;16.90;;;11.52;;
28577;SDS011;15769;52.248;15.818;2023-09-12T16:24:54;14.98;;;11.73;;
28577;SDS011;15769;52.248;15.818;2023-09-12T16:29:57;12.20;;;10.60;;
28577;SDS011;15769;52.248;15.818;2023-09-12T16:35:00;14.52;;;11.27;;
28577;SDS011;15769;52.248;15.818;2023-09-12T16:40:07;12.45;;;11.10;;
28577;SDS011;15769;52.248;15.818;2023-09-12T16:45:10;13.75;;;12.23;;
28577;SDS011;15769;52.248;15.818;2023-09-12T16:50:13;15.98;;;12.05;;
28577;SDS011;15769;52.248;15.818;2023-09-12T16:55:18;16.92;;;12.68;;
28577;SDS011;15769;52.248;15.818;2023-09-12T17:00:25;15.48;;;12.00;;
28577;SDS011;15769;52.248;15.818;2023-09-12T17:05:28;17.95;;;15.23;;
28577;SDS011;15769;52.248;15.818;2023-09-12T17:16:27;33.97;;;22.93;;
28577;SDS011;15769;52.248;15.818;2023-09-12T17:21:30;29.75;;;20.73;;
28577;SDS011;15769;52.248;15.818;2023-09-12T17:26:36;25.65;;;18.70;;
28577;SDS011;15769;52.248;15.818;2023-09-12T17:31:40;28.83;;;21.10;;
28577;SDS011;15769;52.248;15.818;2023-09-12T17:36:44;31.98;;;21.00;;
28577;SDS011;15769;52.248;15.818;2023-09-12T17:41:50;30.10;;;21.38;;
28577;SDS011;15769;52.248;15.818;2023-09-12T17:46:54;28.73;;;20.92;;
28577;SDS011;15769;52.248;15.818;2023-09-12T17:51:57;30.35;;;21.40;;
28577;SDS011;15769;52.248;15.818;2023-09-12T17:57:00;33.63;;;22.52;;
28577;SDS011;15769;52.248;15.818;2023-09-12T18:02:03;33.85;;;24.20;;
28577;SDS011;15769;52.248;15.818;2023-09-12T18:07:06;31.20;;;23.63;;
28577;SDS011;15769;52.248;15.818;2023-09-12T18:12:16;35.92;;;25.98;;
28577;SDS011;15769;52.248;15.818;2023-09-12T18:17:20;37.00;;;27.02;;
28577;SDS011;15769;52.248;15.818;2023-09-12T18:22:23;38.53;;;26.67;;
28577;SDS011;15769;52.248;15.818;2023-09-12T18:27:27;40.65;;;26.67;;
28577;SDS011;15769;52.248;15.818;2023-09-12T18:32:32;42.13;;;28.73;;
28577;SDS011;15769;52.248;15.818;2023-09-12T18:37:35;41.15;;;28.90;;
28577;SDS011;15769;52.248;15.818;2023-09-12T18:42:38;42.67;;;31.40;;
28577;SDS011;15769;52.248;15.818;2023-09-12T18:47:42;43.00;;;30.23;;
28577;SDS011;15769;52.248;15.818;2023-09-12T18:52:45;42.33;;;30.42;;
28577;SDS011;15769;52.248;15.818;2023-09-12T18:57:58;45.67;;;30.35;;
28577;SDS011;15769;52.248;15.818;2023-09-12T19:03:03;36.97;;;28.17;;
28577;SDS011;15769;52.248;15.818;2023-09-12T19:08:07;33.90;;;26.13;;
28577;SDS011;15769;52.248;15.818;2023-09-12T19:18:38;29.95;;;24.15;;
28577;SDS011;15769;52.248;15.818;2023-09-12T19:23:40;35.63;;;24.58;;
28577;SDS011;15769;52.248;15.818;2023-09-12T19:28:46;34.78;;;25.45;;
28577;SDS011;15769;52.248;15.818;2023-09-12T19:38:52;40.60;;;27.27;;
28577;SDS011;15769;52.248;15.818;2023-09-12T19:43:55;40.63;;;27.02;;
28577;SDS011;15769;52.248;15.818;2023-09-12T19:49:02;38.60;;;27.77;;
28577;SDS011;15769;52.248;15.818;2023-09-12T19:54:27;42.85;;;28.00;;
28577;SDS011;15769;52.248;15.818;2023-09-12T19:59:33;37.55;;;28.05;;
28577;SDS011;15769;52.248;15.818;2023-09-12T20:04:36;45.75;;;31.05;;
28577;SDS011;15769;52.248;15.818;2023-09-12T20:09:40;41.85;;;31.00;;
28577;SDS011;15769;52.248;15.818;2023-09-12T20:14:43;46.13;;;30.95;;
28577;SDS011;15769;52.248;15.818;2023-09-12T20:19:49;44.15;;;32.20;;
28577;SDS011;15769;52.248;15.818;2023-09-12T20:24:52;47.50;;;33.42;;
28577;SDS011;15769;52.248;15.818;2023-09-12T20:29:55;44.88;;;33.58;;
28577;SDS011;15769;52.248;15.818;2023-09-12T20:34:58;48.00;;;33.17;;
28577;SDS011;15769;52.248;15.818;2023-09-12T20:40:04;48.92;;;35.05;;
28577;SDS011;15769;52.248;15.818;2023-09-12T20:45:08;52.60;;;34.28;;
28577;SDS011;15769;52.248;15.818;2023-09-12T20:50:11;44.92;;;33.35;;
28577;SDS011;15769;52.248;15.818;2023-09-12T20:55:16;43.30;;;32.72;;
28577;SDS011;15769;52.248;15.818;2023-09-12T21:05:44;40.25;;;31.73;;
28577;SDS011;15769;52.248;15.818;2023-09-12T21:15:58;40.78;;;30.42;;
28577;SDS011;15769;52.248;15.818;2023-09-12T21:21:02;42.20;;;31.42;;
28577;SDS011;15769;52.248;15.818;2023-09-12T21:26:05;42.45;;;30.83;;
28577;SDS011;15769;52.248;15.818;2023-09-12T21:31:07;43.08;;;30.50;;
28577;SDS011;15769;52.248;15.818;2023-09-12T21:36:11;38.95;;;29.27;;
28577;SDS011;15769;52.248;15.818;2023-09-12T21:41:14;41.42;;;29.85;;
28577;SDS011;15769;52.248;15.818;2023-09-12T21:46:35;42.15;;;28.90;;
28577;SDS011;15769;52.248;15.818;2023-09-12T21:56:51;61.90;;;43.07;;
28577;SDS011;15769;52.248;15.818;2023-09-12T22:07:06;45.95;;;32.67;;
28577;SDS011;15769;52.248;15.818;2023-09-12T22:17:27;41.97;;;30.80;;
28577;SDS011;15769;52.248;15.818;2023-09-12T22:22:53;48.00;;;31.88;;
28577;SDS011;15769;52.248;15.818;2023-09-12T22:27:55;41.90;;;30.63;;
28577;SDS011;15769;52.248;15.818;2023-09-12T22:32:58;48.08;;;31.48;;
28577;SDS011;15769;52.248;15.818;2023-09-12T22:38:04;40.03;;;30.67;;
28577;SDS011;15769;52.248;15.818;2023-09-12T22:43:08;42.38;;;28.50;;
28577;SDS011;15769;52.248;15.818;2023-09-12T22:48:11;38.20;;;29.38;;
28577;SDS011;15769;52.248;15.818;2023-09-12T22:58:17;42.88;;;30.23;;
28577;SDS011;15769;52.248;15.818;2023-09-12T23:08:23;37.50;;;27.80;;
28577;SDS011;15769;52.248;15.818;2023-09-12T23:18:28;37.43;;;29.10;;
28577;SDS011;15769;52.248;15.818;2023-09-12T23:28:34;38.67;;;29.38;;
28577;SDS011;15769;52.248;15.818;2023-09-12T23:33:40;41.63;;;28.88;;
28577;SDS011;15769;52.248;15.818;2023-09-12T23:38:44;39.78;;;28.52;;
28577;SDS011;15769;52.248;15.818;2023-09-12T23:43:48;42.22;;;31.23;;
28577;SDS011;15769;52.248;15.818;2023-09-12T23:53:55;41.42;;;30.55;;
